sensor_id;sensor_type;location;lat;lon;timestamp;P1;durP1;ratioP1;P2;durP2;ratioP2
7199;SDS011;3641;49.082;8.200;2024-03-08T00:00:03;34.00;;;18.00;;
7199;SDS011;3641;49.082;8.200;2024-03-08T00:02:34;33.53;;;18.55;;
7199;SDS011;3641;49.082;8.200;2024-03-08T00:05:01;32.70;;;17.95;;
7199;SDS011;3641;49.082;8.200;2024-03-08T00:07:28;33.13;;;18.63;;
7199;SDS011;3641;49.082;8.200;2024-03-08T00:09:55;36.63;;;19.48;;
7199;SDS011;3641;49.082;8.200;2024-03-08T00:12:22;33.67;;;18.63;;
7199;SDS011;3641;49.082;8.200;2024-03-08T00:14:50;33.75;;;18.40;;
7199;SDS011;3641;49.082;8.200;2024-03-08T00:17:17;34.65;;;18.95;;
7199;SDS011;3641;49.082;8.200;2024-03-08T00:19:43;31.98;;;18.23;;
7199;SDS011;3641;49.082;8.200;2024-03-08T00:22:10;31.95;;;18.58;;
7199;SDS011;3641;49.082;8.200;2024-03-08T00:24:36;30.85;;;18.00;;
7199;SDS011;3641;49.082;8.200;2024-03-08T00:27:03;35.38;;;19.25;;
7199;SDS011;3641;49.082;8.200;2024-03-08T00:29:31;35.88;;;19.38;;
7199;SDS011;3641;49.082;8.200;2024-03-08T00:31:57;33.42;;;17.88;;
7199;SDS011;3641;49.082;8.200;2024-03-08T00:34:24;34.97;;;19.50;;
7199;SDS011;3641;49.082;8.200;2024-03-08T00:36:50;34.42;;;18.90;;
7199;SDS011;3641;49.082;8.200;2024-03-08T00:39:17;33.00;;;18.25;;
7199;SDS011;3641;49.082;8.200;2024-03-08T00:41:45;36.50;;;18.48;;
7199;SDS011;3641;49.082;8.200;2024-03-08T00:44:12;31.63;;;17.63;;
7199;SDS011;3641;49.082;8.200;2024-03-08T00:46:40;33.03;;;17.73;;
7199;SDS011;3641;49.082;8.200;2024-03-08T00:49:08;33.53;;;18.02;;
7199;SDS011;3641;49.082;8.200;2024-03-08T00:51:34;35.85;;;19.35;;
7199;SDS011;3641;49.082;8.200;2024-03-08T00:54:01;36.20;;;20.15;;
7199;SDS011;3641;49.082;8.200;2024-03-08T00:56:27;37.67;;;20.52;;
7199;SDS011;3641;49.082;8.200;2024-03-08T00:58:53;33.03;;;18.05;;
7199;SDS011;3641;49.082;8.200;2024-03-08T01:01:20;32.90;;;18.15;;
7199;SDS011;3641;49.082;8.200;2024-03-08T01:03:48;34.20;;;19.30;;
7199;SDS011;3641;49.082;8.200;2024-03-08T01:06:14;36.85;;;19.52;;
7199;SDS011;3641;49.082;8.200;2024-03-08T01:08:41;32.53;;;18.38;;
7199;SDS011;3641;49.082;8.200;2024-03-08T01:11:08;37.40;;;19.15;;
7199;SDS011;3641;49.082;8.200;2024-03-08T01:13:34;32.55;;;18.15;;
7199;SDS011;3641;49.082;8.200;2024-03-08T01:16:01;34.22;;;18.10;;
7199;SDS011;3641;49.082;8.200;2024-03-08T01:18:28;35.97;;;18.65;;
7199;SDS011;3641;49.082;8.200;2024-03-08T01:20:56;34.17;;;18.63;;
7199;SDS011;3641;49.082;8.200;2024-03-08T01:23:23;32.90;;;18.30;;
7199;SDS011;3641;49.082;8.200;2024-03-08T01:25:50;33.80;;;18.70;;
7199;SDS011;3641;49.082;8.200;2024-03-08T01:28:21;39.40;;;18.73;;
7199;SDS011;3641;49.082;8.200;2024-03-08T01:30:48;35.33;;;18.98;;
7199;SDS011;3641;49.082;8.200;2024-03-08T01:33:15;33.45;;;17.52;;
7199;SDS011;3641;49.082;8.200;2024-03-08T01:35:41;32.42;;;17.67;;
7199;SDS011;3641;49.082;8.200;2024-03-08T01:38:09;40.13;;;19.40;;
7199;SDS011;3641;49.082;8.200;2024-03-08T01:40:35;37.22;;;19.20;;
7199;SDS011;3641;49.082;8.200;2024-03-08T01:43:15;33.63;;;18.77;;
7199;SDS011;3641;49.082;8.200;2024-03-08T01:45:43;36.40;;;19.55;;
7199;SDS011;3641;49.082;8.200;2024-03-08T01:48:10;33.70;;;18.15;;
7199;SDS011;3641;49.082;8.200;2024-03-08T01:50:37;34.28;;;18.90;;
7199;SDS011;3641;49.082;8.200;2024-03-08T01:53:04;35.05;;;19.02;;
7199;SDS011;3641;49.082;8.200;2024-03-08T01:55:32;34.50;;;18.38;;
7199;SDS011;3641;49.082;8.200;2024-03-08T01:58:00;34.95;;;19.73;;
7199;SDS011;3641;49.082;8.200;2024-03-08T02:00:29;34.30;;;18.92;;
7199;SDS011;3641;49.082;8.200;2024-03-08T02:02:55;35.30;;;18.73;;
7199;SDS011;3641;49.082;8.200;2024-03-08T02:05:23;37.72;;;19.60;;
7199;SDS011;3641;49.082;8.200;2024-03-08T02:07:50;36.28;;;19.13;;
7199;SDS011;3641;49.082;8.200;2024-03-08T02:10:16;35.17;;;18.40;;
7199;SDS011;3641;49.082;8.200;2024-03-08T02:12:45;32.22;;;18.83;;
7199;SDS011;3641;49.082;8.200;2024-03-08T02:15:12;35.28;;;18.55;;
7199;SDS011;3641;49.082;8.200;2024-03-08T02:17:40;35.50;;;19.27;;
7199;SDS011;3641;49.082;8.200;2024-03-08T02:20:06;35.90;;;19.48;;
7199;SDS011;3641;49.082;8.200;2024-03-08T02:22:35;31.92;;;17.75;;
7199;SDS011;3641;49.082;8.200;2024-03-08T02:25:02;35.45;;;19.50;;
7199;SDS011;3641;49.082;8.200;2024-03-08T02:27:30;37.38;;;19.90;;
7199;SDS011;3641;49.082;8.200;2024-03-08T02:29:57;34.42;;;19.23;;
7199;SDS011;3641;49.082;8.200;2024-03-08T02:32:25;34.80;;;19.08;;
7199;SDS011;3641;49.082;8.200;2024-03-08T02:34:55;36.70;;;18.25;;
7199;SDS011;3641;49.082;8.200;2024-03-08T02:37:24;33.60;;;18.42;;
7199;SDS011;3641;49.082;8.200;2024-03-08T02:39:52;35.80;;;19.50;;
7199;SDS011;3641;49.082;8.200;2024-03-08T02:42:19;34.97;;;19.27;;
7199;SDS011;3641;49.082;8.200;2024-03-08T02:44:45;35.15;;;19.02;;
7199;SDS011;3641;49.082;8.200;2024-03-08T02:47:12;35.10;;;17.83;;
7199;SDS011;3641;49.082;8.200;2024-03-08T02:49:38;37.60;;;19.70;;
7199;SDS011;3641;49.082;8.200;2024-03-08T02:52:05;36.05;;;19.50;;
7199;SDS011;3641;49.082;8.200;2024-03-08T02:54:32;38.00;;;19.85;;
7199;SDS011;3641;49.082;8.200;2024-03-08T02:57:01;34.97;;;18.92;;
7199;SDS011;3641;49.082;8.200;2024-03-08T02:59:29;38.42;;;19.63;;
7199;SDS011;3641;49.082;8.200;2024-03-08T03:01:55;35.83;;;18.05;;
7199;SDS011;3641;49.082;8.200;2024-03-08T03:04:21;37.10;;;19.30;;
7199;SDS011;3641;49.082;8.200;2024-03-08T03:06:48;35.22;;;17.85;;
7199;SDS011;3641;49.082;8.200;2024-03-08T03:09:14;37.75;;;19.15;;
7199;SDS011;3641;49.082;8.200;2024-03-08T03:11:43;35.63;;;18.85;;
7199;SDS011;3641;49.082;8.200;2024-03-08T03:14:11;39.22;;;19.15;;
7199;SDS011;3641;49.082;8.200;2024-03-08T03:16:38;32.72;;;18.65;;
7199;SDS011;3641;49.082;8.200;2024-03-08T03:19:05;35.85;;;20.05;;
7199;SDS011;3641;49.082;8.200;2024-03-08T03:21:33;35.72;;;18.52;;
7199;SDS011;3641;49.082;8.200;2024-03-08T03:24:00;34.05;;;17.70;;
7199;SDS011;3641;49.082;8.200;2024-03-08T03:26:29;36.78;;;19.25;;
7199;SDS011;3641;49.082;8.200;2024-03-08T03:28:56;35.30;;;19.63;;
7199;SDS011;3641;49.082;8.200;2024-03-08T03:31:24;36.33;;;19.17;;
7199;SDS011;3641;49.082;8.200;2024-03-08T03:33:51;39.45;;;19.55;;
7199;SDS011;3641;49.082;8.200;2024-03-08T03:36:17;34.72;;;18.55;;
7199;SDS011;3641;49.082;8.200;2024-03-08T03:38:44;40.10;;;20.77;;
7199;SDS011;3641;49.082;8.200;2024-03-08T03:41:10;39.28;;;19.17;;
7199;SDS011;3641;49.082;8.200;2024-03-08T03:43:37;36.45;;;19.65;;
7199;SDS011;3641;49.082;8.200;2024-03-08T03:46:05;40.67;;;20.08;;
7199;SDS011;3641;49.082;8.200;2024-03-08T03:48:33;38.50;;;20.02;;
7199;SDS011;3641;49.082;8.200;2024-03-08T03:50:59;38.33;;;20.15;;
7199;SDS011;3641;49.082;8.200;2024-03-08T03:53:26;37.80;;;19.65;;
7199;SDS011;3641;49.082;8.200;2024-03-08T03:55:52;36.47;;;19.80;;
7199;SDS011;3641;49.082;8.200;2024-03-08T03:58:19;37.80;;;19.98;;
7199;SDS011;3641;49.082;8.200;2024-03-08T04:00:47;38.33;;;19.33;;
7199;SDS011;3641;49.082;8.200;2024-03-08T04:03:14;41.13;;;20.48;;
7199;SDS011;3641;49.082;8.200;2024-03-08T04:05:43;40.35;;;20.23;;
7199;SDS011;3641;49.082;8.200;2024-03-08T04:08:09;36.60;;;19.08;;
7199;SDS011;3641;49.082;8.200;2024-03-08T04:10:36;42.30;;;21.42;;
7199;SDS011;3641;49.082;8.200;2024-03-08T04:13:02;38.72;;;19.73;;
7199;SDS011;3641;49.082;8.200;2024-03-08T04:15:29;39.78;;;19.65;;
7199;SDS011;3641;49.082;8.200;2024-03-08T04:17:55;35.28;;;19.08;;
7199;SDS011;3641;49.082;8.200;2024-03-08T04:20:22;36.90;;;19.77;;
7199;SDS011;3641;49.082;8.200;2024-03-08T04:22:50;35.13;;;18.35;;
7199;SDS011;3641;49.082;8.200;2024-03-08T04:25:16;34.10;;;19.33;;
7199;SDS011;3641;49.082;8.200;2024-03-08T04:27:43;41.63;;;20.52;;
7199;SDS011;3641;49.082;8.200;2024-03-08T04:30:10;36.47;;;19.58;;
7199;SDS011;3641;49.082;8.200;2024-03-08T04:32:37;36.17;;;19.00;;
7199;SDS011;3641;49.082;8.200;2024-03-08T04:35:03;40.78;;;18.80;;
7199;SDS011;3641;49.082;8.200;2024-03-08T04:37:30;36.58;;;19.60;;
7199;SDS011;3641;49.082;8.200;2024-03-08T04:39:58;35.55;;;19.10;;
7199;SDS011;3641;49.082;8.200;2024-03-08T04:42:25;42.63;;;20.10;;
7199;SDS011;3641;49.082;8.200;2024-03-08T04:44:52;36.67;;;18.80;;
7199;SDS011;3641;49.082;8.200;2024-03-08T04:47:19;40.97;;;20.27;;
7199;SDS011;3641;49.082;8.200;2024-03-08T04:49:46;35.17;;;18.75;;
7199;SDS011;3641;49.082;8.200;2024-03-08T04:52:12;38.00;;;19.90;;
7199;SDS011;3641;49.082;8.200;2024-03-08T04:54:39;38.80;;;19.15;;
7199;SDS011;3641;49.082;8.200;2024-03-08T04:57:07;38.50;;;19.60;;
7199;SDS011;3641;49.082;8.200;2024-03-08T04:59:33;34.75;;;18.60;;
7199;SDS011;3641;49.082;8.200;2024-03-08T05:01:59;36.65;;;19.00;;
7199;SDS011;3641;49.082;8.200;2024-03-08T05:04:26;34.63;;;19.02;;
7199;SDS011;3641;49.082;8.200;2024-03-08T05:06:54;36.53;;;19.70;;
7199;SDS011;3641;49.082;8.200;2024-03-08T05:09:20;33.65;;;19.25;;
7199;SDS011;3641;49.082;8.200;2024-03-08T05:11:48;36.70;;;18.83;;
7199;SDS011;3641;49.082;8.200;2024-03-08T05:14:16;36.33;;;18.58;;
7199;SDS011;3641;49.082;8.200;2024-03-08T05:16:45;34.50;;;17.65;;
7199;SDS011;3641;49.082;8.200;2024-03-08T05:19:13;37.75;;;18.45;;
7199;SDS011;3641;49.082;8.200;2024-03-08T05:21:41;35.83;;;18.38;;
7199;SDS011;3641;49.082;8.200;2024-03-08T05:24:08;35.28;;;18.42;;
7199;SDS011;3641;49.082;8.200;2024-03-08T05:26:35;38.45;;;19.08;;
7199;SDS011;3641;49.082;8.200;2024-03-08T05:29:02;37.38;;;18.73;;
7199;SDS011;3641;49.082;8.200;2024-03-08T05:31:30;38.65;;;18.75;;
7199;SDS011;3641;49.082;8.200;2024-03-08T05:34:02;36.17;;;18.50;;
7199;SDS011;3641;49.082;8.200;2024-03-08T05:36:28;38.67;;;20.30;;
7199;SDS011;3641;49.082;8.200;2024-03-08T05:38:55;37.70;;;19.35;;
7199;SDS011;3641;49.082;8.200;2024-03-08T05:41:21;38.03;;;19.25;;
7199;SDS011;3641;49.082;8.200;2024-03-08T05:43:48;35.25;;;19.17;;
7199;SDS011;3641;49.082;8.200;2024-03-08T05:46:15;44.65;;;22.65;;
7199;SDS011;3641;49.082;8.200;2024-03-08T05:48:44;38.60;;;19.77;;
7199;SDS011;3641;49.082;8.200;2024-03-08T05:51:11;37.35;;;20.13;;
7199;SDS011;3641;49.082;8.200;2024-03-08T05:53:38;35.55;;;18.75;;
7199;SDS011;3641;49.082;8.200;2024-03-08T05:56:04;34.53;;;18.77;;
7199;SDS011;3641;49.082;8.200;2024-03-08T05:58:32;38.85;;;19.23;;
7199;SDS011;3641;49.082;8.200;2024-03-08T06:00:58;39.00;;;19.90;;
7199;SDS011;3641;49.082;8.200;2024-03-08T06:03:24;34.45;;;18.10;;
7199;SDS011;3641;49.082;8.200;2024-03-08T06:05:52;39.35;;;18.98;;
7199;SDS011;3641;49.082;8.200;2024-03-08T06:08:19;36.00;;;19.80;;
7199;SDS011;3641;49.082;8.200;2024-03-08T06:10:46;34.53;;;18.88;;
7199;SDS011;3641;49.082;8.200;2024-03-08T06:13:17;36.95;;;19.88;;
7199;SDS011;3641;49.082;8.200;2024-03-08T06:15:43;37.15;;;18.77;;
7199;SDS011;3641;49.082;8.200;2024-03-08T06:18:10;39.45;;;19.55;;
7199;SDS011;3641;49.082;8.200;2024-03-08T06:20:37;41.20;;;19.67;;
7199;SDS011;3641;49.082;8.200;2024-03-08T06:23:05;37.08;;;18.98;;
7199;SDS011;3641;49.082;8.200;2024-03-08T06:25:32;35.97;;;18.75;;
7199;SDS011;3641;49.082;8.200;2024-03-08T06:28:00;36.10;;;19.23;;
7199;SDS011;3641;49.082;8.200;2024-03-08T06:30:26;36.50;;;19.83;;
7199;SDS011;3641;49.082;8.200;2024-03-08T06:32:53;42.53;;;19.85;;
7199;SDS011;3641;49.082;8.200;2024-03-08T06:35:19;37.30;;;18.80;;
7199;SDS011;3641;49.082;8.200;2024-03-08T06:37:46;38.60;;;19.80;;
7199;SDS011;3641;49.082;8.200;2024-03-08T06:40:13;39.08;;;19.00;;
7199;SDS011;3641;49.082;8.200;2024-03-08T06:42:40;38.75;;;19.90;;
7199;SDS011;3641;49.082;8.200;2024-03-08T06:45:08;38.28;;;19.77;;
7199;SDS011;3641;49.082;8.200;2024-03-08T06:47:35;36.33;;;19.45;;
7199;SDS011;3641;49.082;8.200;2024-03-08T06:50:02;36.30;;;19.00;;
7199;SDS011;3641;49.082;8.200;2024-03-08T06:52:28;38.60;;;19.63;;
7199;SDS011;3641;49.082;8.200;2024-03-08T06:54:55;34.72;;;18.80;;
7199;SDS011;3641;49.082;8.200;2024-03-08T06:57:23;38.30;;;20.08;;
7199;SDS011;3641;49.082;8.200;2024-03-08T06:59:50;37.58;;;19.58;;
7199;SDS011;3641;49.082;8.200;2024-03-08T07:02:17;35.08;;;19.38;;
7199;SDS011;3641;49.082;8.200;2024-03-08T07:04:44;37.83;;;19.17;;
7199;SDS011;3641;49.082;8.200;2024-03-08T07:07:10;36.42;;;19.00;;
7199;SDS011;3641;49.082;8.200;2024-03-08T07:09:37;37.55;;;19.30;;
7199;SDS011;3641;49.082;8.200;2024-03-08T07:12:03;36.17;;;19.17;;
7199;SDS011;3641;49.082;8.200;2024-03-08T07:14:31;36.55;;;19.80;;
7199;SDS011;3641;49.082;8.200;2024-03-08T07:16:58;34.45;;;17.58;;
7199;SDS011;3641;49.082;8.200;2024-03-08T07:19:24;40.03;;;19.13;;
7199;SDS011;3641;49.082;8.200;2024-03-08T07:21:51;36.90;;;19.08;;
7199;SDS011;3641;49.082;8.200;2024-03-08T07:24:17;35.35;;;18.65;;
7199;SDS011;3641;49.082;8.200;2024-03-08T07:27:05;38.75;;;18.98;;
7199;SDS011;3641;49.082;8.200;2024-03-08T07:29:33;34.88;;;18.35;;
7199;SDS011;3641;49.082;8.200;2024-03-08T07:32:00;34.05;;;18.15;;
7199;SDS011;3641;49.082;8.200;2024-03-08T07:34:37;36.20;;;18.48;;
7199;SDS011;3641;49.082;8.200;2024-03-08T07:37:05;41.42;;;20.23;;
7199;SDS011;3641;49.082;8.200;2024-03-08T07:39:35;39.45;;;19.35;;
7199;SDS011;3641;49.082;8.200;2024-03-08T07:42:02;35.17;;;18.88;;
7199;SDS011;3641;49.082;8.200;2024-03-08T07:44:29;36.85;;;18.23;;
7199;SDS011;3641;49.082;8.200;2024-03-08T07:46:58;35.17;;;18.23;;
7199;SDS011;3641;49.082;8.200;2024-03-08T07:49:24;36.00;;;18.38;;
7199;SDS011;3641;49.082;8.200;2024-03-08T07:51:51;34.95;;;17.70;;
7199;SDS011;3641;49.082;8.200;2024-03-08T07:54:18;37.15;;;19.15;;
7199;SDS011;3641;49.082;8.200;2024-03-08T07:56:45;37.70;;;19.05;;
7199;SDS011;3641;49.082;8.200;2024-03-08T07:59:11;33.25;;;18.02;;
7199;SDS011;3641;49.082;8.200;2024-03-08T08:01:38;34.38;;;17.63;;
7199;SDS011;3641;49.082;8.200;2024-03-08T08:04:06;34.63;;;18.38;;
7199;SDS011;3641;49.082;8.200;2024-03-08T08:06:37;37.08;;;18.90;;
7199;SDS011;3641;49.082;8.200;2024-03-08T08:09:05;37.22;;;19.60;;
7199;SDS011;3641;49.082;8.200;2024-03-08T08:11:35;37.05;;;19.30;;
7199;SDS011;3641;49.082;8.200;2024-03-08T08:14:01;33.42;;;18.15;;
7199;SDS011;3641;49.082;8.200;2024-03-08T08:16:27;31.08;;;17.40;;
7199;SDS011;3641;49.082;8.200;2024-03-08T08:18:54;32.58;;;18.02;;
7199;SDS011;3641;49.082;8.200;2024-03-08T08:21:22;33.13;;;17.88;;
7199;SDS011;3641;49.082;8.200;2024-03-08T08:23:50;34.70;;;18.27;;
7199;SDS011;3641;49.082;8.200;2024-03-08T08:26:16;37.35;;;18.33;;
7199;SDS011;3641;49.082;8.200;2024-03-08T08:28:43;34.67;;;18.52;;
7199;SDS011;3641;49.082;8.200;2024-03-08T08:31:11;36.15;;;18.02;;
7199;SDS011;3641;49.082;8.200;2024-03-08T08:33:38;36.33;;;18.50;;
7199;SDS011;3641;49.082;8.200;2024-03-08T08:36:05;33.58;;;18.02;;
7199;SDS011;3641;49.082;8.200;2024-03-08T08:38:33;32.95;;;18.35;;
7199;SDS011;3641;49.082;8.200;2024-03-08T08:41:00;32.35;;;17.48;;
7199;SDS011;3641;49.082;8.200;2024-03-08T08:43:27;33.95;;;18.05;;
7199;SDS011;3641;49.082;8.200;2024-03-08T08:45:54;34.05;;;17.60;;
7199;SDS011;3641;49.082;8.200;2024-03-08T08:48:20;35.95;;;18.65;;
7199;SDS011;3641;49.082;8.200;2024-03-08T08:50:47;34.80;;;19.25;;
7199;SDS011;3641;49.082;8.200;2024-03-08T08:53:15;32.40;;;18.27;;
7199;SDS011;3641;49.082;8.200;2024-03-08T08:55:43;34.97;;;18.52;;
7199;SDS011;3641;49.082;8.200;2024-03-08T08:58:10;36.53;;;17.98;;
7199;SDS011;3641;49.082;8.200;2024-03-08T09:00:38;39.63;;;19.45;;
7199;SDS011;3641;49.082;8.200;2024-03-08T09:03:05;34.97;;;17.92;;
7199;SDS011;3641;49.082;8.200;2024-03-08T09:05:32;38.35;;;18.55;;
7199;SDS011;3641;49.082;8.200;2024-03-08T09:08:00;36.70;;;18.40;;
7199;SDS011;3641;49.082;8.200;2024-03-08T09:10:26;31.27;;;17.17;;
7199;SDS011;3641;49.082;8.200;2024-03-08T09:12:54;31.58;;;16.67;;
7199;SDS011;3641;49.082;8.200;2024-03-08T09:15:20;32.28;;;17.25;;
7199;SDS011;3641;49.082;8.200;2024-03-08T09:17:47;32.03;;;17.38;;
7199;SDS011;3641;49.082;8.200;2024-03-08T09:20:13;35.58;;;18.70;;
7199;SDS011;3641;49.082;8.200;2024-03-08T09:22:40;33.05;;;18.17;;
7199;SDS011;3641;49.082;8.200;2024-03-08T09:25:08;33.95;;;18.17;;
7199;SDS011;3641;49.082;8.200;2024-03-08T09:27:35;32.70;;;17.80;;
7199;SDS011;3641;49.082;8.200;2024-03-08T09:30:03;32.55;;;17.08;;
7199;SDS011;3641;49.082;8.200;2024-03-08T09:32:31;35.17;;;19.20;;
7199;SDS011;3641;49.082;8.200;2024-03-08T09:34:58;31.70;;;17.25;;
7199;SDS011;3641;49.082;8.200;2024-03-08T09:37:26;31.83;;;17.83;;
7199;SDS011;3641;49.082;8.200;2024-03-08T09:39:52;30.35;;;16.80;;
7199;SDS011;3641;49.082;8.200;2024-03-08T09:42:18;32.80;;;17.63;;
7199;SDS011;3641;49.082;8.200;2024-03-08T09:44:45;30.67;;;16.92;;
7199;SDS011;3641;49.082;8.200;2024-03-08T09:47:14;34.65;;;17.73;;
7199;SDS011;3641;49.082;8.200;2024-03-08T09:49:41;33.20;;;18.27;;
7199;SDS011;3641;49.082;8.200;2024-03-08T09:52:08;33.92;;;17.45;;
7199;SDS011;3641;49.082;8.200;2024-03-08T09:54:35;31.73;;;16.92;;
7199;SDS011;3641;49.082;8.200;2024-03-08T09:57:01;35.55;;;19.40;;
7199;SDS011;3641;49.082;8.200;2024-03-08T09:59:30;33.45;;;17.33;;
7199;SDS011;3641;49.082;8.200;2024-03-08T10:02:15;36.03;;;17.90;;
7199;SDS011;3641;49.082;8.200;2024-03-08T10:04:43;33.53;;;18.08;;
7199;SDS011;3641;49.082;8.200;2024-03-08T10:07:11;32.95;;;18.13;;
7199;SDS011;3641;49.082;8.200;2024-03-08T10:09:38;29.98;;;16.38;;
7199;SDS011;3641;49.082;8.200;2024-03-08T10:12:04;29.42;;;16.70;;
7199;SDS011;3641;49.082;8.200;2024-03-08T10:14:31;31.88;;;17.50;;
7199;SDS011;3641;49.082;8.200;2024-03-08T10:16:58;28.17;;;16.00;;
7199;SDS011;3641;49.082;8.200;2024-03-08T10:19:27;31.10;;;16.20;;
7199;SDS011;3641;49.082;8.200;2024-03-08T10:21:55;32.30;;;17.70;;
7199;SDS011;3641;49.082;8.200;2024-03-08T10:24:23;35.70;;;17.75;;
7199;SDS011;3641;49.082;8.200;2024-03-08T10:26:51;31.75;;;17.00;;
7199;SDS011;3641;49.082;8.200;2024-03-08T10:29:18;29.48;;;17.55;;
7199;SDS011;3641;49.082;8.200;2024-03-08T10:31:45;30.45;;;16.80;;
7199;SDS011;3641;49.082;8.200;2024-03-08T10:34:12;29.75;;;17.02;;
7199;SDS011;3641;49.082;8.200;2024-03-08T10:36:41;31.52;;;17.50;;
7199;SDS011;3641;49.082;8.200;2024-03-08T10:39:10;30.05;;;16.80;;
7199;SDS011;3641;49.082;8.200;2024-03-08T10:41:45;29.17;;;17.23;;
7199;SDS011;3641;49.082;8.200;2024-03-08T10:44:32;28.83;;;16.48;;
7199;SDS011;3641;49.082;8.200;2024-03-08T10:47:17;31.55;;;16.92;;
7199;SDS011;3641;49.082;8.200;2024-03-08T10:49:49;29.88;;;16.23;;
7199;SDS011;3641;49.082;8.200;2024-03-08T10:52:20;30.50;;;16.65;;
7199;SDS011;3641;49.082;8.200;2024-03-08T10:54:47;30.55;;;16.70;;
7199;SDS011;3641;49.082;8.200;2024-03-08T10:57:14;29.15;;;16.77;;
7199;SDS011;3641;49.082;8.200;2024-03-08T10:59:43;29.30;;;16.45;;
7199;SDS011;3641;49.082;8.200;2024-03-08T11:02:11;28.98;;;17.05;;
7199;SDS011;3641;49.082;8.200;2024-03-08T11:04:38;30.08;;;16.50;;
7199;SDS011;3641;49.082;8.200;2024-03-08T11:07:04;31.42;;;17.55;;
7199;SDS011;3641;49.082;8.200;2024-03-08T11:09:35;29.73;;;17.33;;
7199;SDS011;3641;49.082;8.200;2024-03-08T11:12:19;31.45;;;17.95;;
7199;SDS011;3641;49.082;8.200;2024-03-08T11:14:47;29.05;;;17.48;;
7199;SDS011;3641;49.082;8.200;2024-03-08T11:17:14;30.92;;;17.88;;
7199;SDS011;3641;49.082;8.200;2024-03-08T11:19:45;32.92;;;18.27;;
7199;SDS011;3641;49.082;8.200;2024-03-08T11:22:20;31.98;;;18.10;;
7199;SDS011;3641;49.082;8.200;2024-03-08T11:24:50;29.55;;;17.25;;
7199;SDS011;3641;49.082;8.200;2024-03-08T11:27:16;29.58;;;16.08;;
7199;SDS011;3641;49.082;8.200;2024-03-08T11:29:43;31.67;;;16.40;;
7199;SDS011;3641;49.082;8.200;2024-03-08T11:32:10;29.67;;;17.27;;
7199;SDS011;3641;49.082;8.200;2024-03-08T11:34:37;30.77;;;17.35;;
7199;SDS011;3641;49.082;8.200;2024-03-08T11:37:10;30.73;;;17.48;;
7199;SDS011;3641;49.082;8.200;2024-03-08T11:39:38;31.20;;;17.15;;
7199;SDS011;3641;49.082;8.200;2024-03-08T11:42:06;32.75;;;17.52;;
7199;SDS011;3641;49.082;8.200;2024-03-08T11:44:33;31.17;;;17.20;;
7199;SDS011;3641;49.082;8.200;2024-03-08T11:46:59;30.25;;;16.83;;
7199;SDS011;3641;49.082;8.200;2024-03-08T11:49:26;31.13;;;17.40;;
7199;SDS011;3641;49.082;8.200;2024-03-08T11:51:52;30.13;;;16.77;;
7199;SDS011;3641;49.082;8.200;2024-03-08T11:54:19;28.33;;;16.92;;
7199;SDS011;3641;49.082;8.200;2024-03-08T11:56:46;28.70;;;15.68;;
7199;SDS011;3641;49.082;8.200;2024-03-08T11:59:14;29.13;;;16.08;;
7199;SDS011;3641;49.082;8.200;2024-03-08T12:01:42;28.80;;;16.42;;
7199;SDS011;3641;49.082;8.200;2024-03-08T12:04:11;31.60;;;17.23;;
7199;SDS011;3641;49.082;8.200;2024-03-08T12:06:39;27.83;;;15.73;;
7199;SDS011;3641;49.082;8.200;2024-03-08T12:09:09;28.85;;;16.40;;
7199;SDS011;3641;49.082;8.200;2024-03-08T12:11:36;30.42;;;16.27;;
7199;SDS011;3641;49.082;8.200;2024-03-08T12:14:03;27.00;;;15.88;;
7199;SDS011;3641;49.082;8.200;2024-03-08T12:16:32;26.95;;;15.50;;
7199;SDS011;3641;49.082;8.200;2024-03-08T12:18:59;27.13;;;16.05;;
7199;SDS011;3641;49.082;8.200;2024-03-08T12:21:26;27.38;;;15.85;;
7199;SDS011;3641;49.082;8.200;2024-03-08T12:24:04;27.05;;;15.48;;
7199;SDS011;3641;49.082;8.200;2024-03-08T12:26:34;27.42;;;15.93;;
7199;SDS011;3641;49.082;8.200;2024-03-08T12:29:15;27.92;;;16.55;;
7199;SDS011;3641;49.082;8.200;2024-03-08T12:31:46;27.13;;;16.30;;
7199;SDS011;3641;49.082;8.200;2024-03-08T12:34:12;27.67;;;16.92;;
7199;SDS011;3641;49.082;8.200;2024-03-08T12:36:43;28.70;;;17.85;;
7199;SDS011;3641;49.082;8.200;2024-03-08T12:39:12;27.60;;;15.65;;
7199;SDS011;3641;49.082;8.200;2024-03-08T12:41:41;28.63;;;16.42;;
7199;SDS011;3641;49.082;8.200;2024-03-08T12:44:08;28.20;;;15.75;;
7199;SDS011;3641;49.082;8.200;2024-03-08T12:46:36;27.42;;;15.98;;
7199;SDS011;3641;49.082;8.200;2024-03-08T12:49:06;26.17;;;15.73;;
7199;SDS011;3641;49.082;8.200;2024-03-08T12:51:34;30.00;;;15.57;;
7199;SDS011;3641;49.082;8.200;2024-03-08T12:54:00;26.95;;;16.30;;
7199;SDS011;3641;49.082;8.200;2024-03-08T12:56:30;35.25;;;16.48;;
7199;SDS011;3641;49.082;8.200;2024-03-08T12:58:58;28.95;;;16.67;;
7199;SDS011;3641;49.082;8.200;2024-03-08T13:01:25;27.65;;;15.23;;
7199;SDS011;3641;49.082;8.200;2024-03-08T13:03:52;26.23;;;15.05;;
7199;SDS011;3641;49.082;8.200;2024-03-08T13:06:21;25.65;;;14.88;;
7199;SDS011;3641;49.082;8.200;2024-03-08T13:08:49;28.08;;;16.15;;
7199;SDS011;3641;49.082;8.200;2024-03-08T13:11:16;26.17;;;15.07;;
7199;SDS011;3641;49.082;8.200;2024-03-08T13:13:42;28.08;;;15.57;;
7199;SDS011;3641;49.082;8.200;2024-03-08T13:16:09;28.45;;;15.27;;
7199;SDS011;3641;49.082;8.200;2024-03-08T13:18:39;29.45;;;15.35;;
7199;SDS011;3641;49.082;8.200;2024-03-08T13:21:08;26.83;;;15.18;;
7199;SDS011;3641;49.082;8.200;2024-03-08T13:23:37;26.52;;;15.48;;
7199;SDS011;3641;49.082;8.200;2024-03-08T13:26:05;27.90;;;15.35;;
7199;SDS011;3641;49.082;8.200;2024-03-08T13:28:32;27.23;;;14.85;;
7199;SDS011;3641;49.082;8.200;2024-03-08T13:31:02;26.27;;;14.90;;
7199;SDS011;3641;49.082;8.200;2024-03-08T13:33:31;28.08;;;15.38;;
7199;SDS011;3641;49.082;8.200;2024-03-08T13:36:00;30.08;;;16.85;;
7199;SDS011;3641;49.082;8.200;2024-03-08T13:38:28;29.67;;;15.98;;
7199;SDS011;3641;49.082;8.200;2024-03-08T13:40:58;26.58;;;15.52;;
7199;SDS011;3641;49.082;8.200;2024-03-08T13:43:24;29.73;;;16.80;;
7199;SDS011;3641;49.082;8.200;2024-03-08T13:45:53;25.20;;;15.23;;
7199;SDS011;3641;49.082;8.200;2024-03-08T13:48:20;28.60;;;15.32;;
7199;SDS011;3641;49.082;8.200;2024-03-08T13:50:47;26.85;;;14.90;;
7199;SDS011;3641;49.082;8.200;2024-03-08T13:53:14;27.60;;;15.57;;
7199;SDS011;3641;49.082;8.200;2024-03-08T13:55:40;31.95;;;16.13;;
7199;SDS011;3641;49.082;8.200;2024-03-08T13:58:08;26.80;;;15.68;;
7199;SDS011;3641;49.082;8.200;2024-03-08T14:00:35;29.90;;;15.90;;
7199;SDS011;3641;49.082;8.200;2024-03-08T14:03:01;25.58;;;15.25;;
7199;SDS011;3641;49.082;8.200;2024-03-08T14:05:30;30.40;;;15.98;;
7199;SDS011;3641;49.082;8.200;2024-03-08T14:07:59;27.95;;;15.77;;
7199;SDS011;3641;49.082;8.200;2024-03-08T14:10:28;30.38;;;15.60;;
7199;SDS011;3641;49.082;8.200;2024-03-08T14:12:56;29.50;;;15.68;;
7199;SDS011;3641;49.082;8.200;2024-03-08T14:15:24;26.08;;;14.82;;
7199;SDS011;3641;49.082;8.200;2024-03-08T14:17:54;27.75;;;15.68;;
7199;SDS011;3641;49.082;8.200;2024-03-08T14:20:20;27.27;;;16.95;;
7199;SDS011;3641;49.082;8.200;2024-03-08T14:22:50;34.63;;;16.33;;
7199;SDS011;3641;49.082;8.200;2024-03-08T14:25:17;29.42;;;16.45;;
7199;SDS011;3641;49.082;8.200;2024-03-08T14:27:43;28.60;;;16.67;;
7199;SDS011;3641;49.082;8.200;2024-03-08T14:30:10;29.55;;;16.23;;
7199;SDS011;3641;49.082;8.200;2024-03-08T14:32:38;28.25;;;15.68;;
7199;SDS011;3641;49.082;8.200;2024-03-08T14:35:06;30.08;;;16.55;;
7199;SDS011;3641;49.082;8.200;2024-03-08T14:37:32;27.77;;;16.90;;
7199;SDS011;3641;49.082;8.200;2024-03-08T14:39:59;29.67;;;16.27;;
7199;SDS011;3641;49.082;8.200;2024-03-08T14:42:26;29.30;;;17.00;;
7199;SDS011;3641;49.082;8.200;2024-03-08T14:44:52;31.95;;;15.88;;
7199;SDS011;3641;49.082;8.200;2024-03-08T14:47:19;29.77;;;16.75;;
7199;SDS011;3641;49.082;8.200;2024-03-08T14:49:48;31.70;;;16.90;;